MDT,Max TemperatureF,Mean TemperatureF,Min TemperatureF,Max Dew PointF,MeanDew PointF,Min DewpointF,Max Humidity, Mean Humidity, Min Humidity, Max Sea Level PressureIn, Mean Sea Level PressureIn, Min Sea Level PressureIn, Max VisibilityMiles, Mean VisibilityMiles, Min VisibilityMiles, Max Wind SpeedMPH, Mean Wind SpeedMPH, Max Gust SpeedMPH,PrecipitationIn, CloudCover, Events, WindDirDegrees
2011-10-1,77,57,39,35,32,26,76,41,16,30.25,30.14,30.07,10,10,10,8,2,16,0.00,1,,184
2011-10-2,77,58,41,42,34,29,67,44,18,30.19,30.12,30.06,10,10,10,20,4,26,0.00,1,,87
2011-10-3,72,57,43,47,39,35,76,55,28,30.18,30.10,30.04,10,10,10,14,3,18,0.01,3,Rain,52
2011-10-4,55,50,46,50,47,43,100,90,64,30.24,30.11,30.01,10,6,2,13,7,,0.75,8,Rain,83
2011-10-5,55,50,46,45,44,39,96,82,57,30.12,29.97,29.78,10,10,10,14,5,,0.08,7,Rain,95
2011-10-6,51,42,33,47,37,34,100,90,61,29.99,29.82,29.56,10,8,1,28,14,45,0.26,7,Rain-Snow,196
2011-10-7,51,42,35,39,35,28,100,85,44,30.00,29.97,29.91,10,10,5,12,4,,0.06,7,Rain-Thunderstorm,93
2011-10-8,51,42,34,36,31,25,93,72,39,30.12,30.00,29.90,10,10,10,15,8,21,0.00,6,,218
2011-10-9,54,44,36,35,33,27,93,70,39,30.18,30.11,30.06,10,10,10,6,1,,0.00,6,,47
2011-10-10,60,44,30,33,30,26,92,63,28,30.16,30.08,29.99,10,10,10,10,2,22,0.00,1,,337
2011-10-11,64,50,37,36,32,28,86,51,27,30.00,29.95,29.85,10,10,10,20,6,29,0.00,2,,291
2011-10-12,69,52,34,32,28,21,82,48,17,30.14,30.07,29.98,10,10,10,9,3,,0.00,0,,148
2011-10-13,69,52,34,32,28,23,85,49,18,30.19,30.09,29.99,10,10,10,15,4,23,0.00,0,,106
2011-10-14,73,54,34,34,30,27,85,50,18,30.14,30.06,29.97,10,10,10,16,4,21,0.00,0,,356
2011-10-15,75,56,36,32,29,24,79,46,16,30.21,30.11,30.04,10,10,10,10,5,,0.00,0,,17
2011-10-16,75,56,37,34,25,16,73,38,11,30.18,30.07,29.99,10,10,10,29,6,38,0.00,0,,333
2011-10-17,68,50,35,32,23,17,72,37,16,30.13,30.02,29.95,10,10,10,22,8,31,0.00,0,,343
2011-10-18,64,47,30,25,21,19,66,43,18,30.28,30.19,30.09,10,10,10,9,3,,0.00,0,,69
2011-10-19,64,46,27,26,19,10,81,42,14,30.26,30.12,30.00,10,10,10,9,4,,0.00,0,,44
2011-10-20,68,48,28,23,21,18,72,43,15,30.18,30.10,30.03,10,10,10,13,3,22,0.00,0,,27
2011-10-21,69,48,28,25,20,15,75,38,13,30.30,30.19,30.11,10,10,10,18,4,29,0.00,0,,270
2011-10-22,71,48,28,26,23,20,75,42,15,30.25,30.18,30.08,10,10,10,18,4,23,0.00,0,,33
2011-10-23,71,50,28,25,23,18,78,43,14,30.27,30.19,30.10,10,10,10,10,3,,0.00,0,,19
2011-10-24,70,50,30,26,22,17,72,42,16,30.27,30.14,30.04,10,10,10,15,4,26,0.00,1,,324
2011-10-25,60,50,42,43,37,24,100,73,41,30.14,30.07,29.98,10,8,2,33,6,45,0.26,7,Rain-Thunderstorm,346
2011-10-26,43,41,39,43,40,37,100,95,85,30.04,29.97,29.88,10,8,2,16,4,21,0.66,7,Rain-Thunderstorm,23
2011-10-27,48,42,35,40,37,32,100,87,68,30.18,30.09,29.99,10,8,2,14,3,,0.00,6,Rain,235
2011-10-28,55,41,28,34,30,24,96,75,31,30.35,30.29,30.19,10,10,6,9,2,,0.00,0,,4
2011-10-29,55,41,27,33,29,25,96,70,35,30.32,30.23,30.12,10,10,9,13,3,,0.00,0,,263
2011-10-30,60,43,27,32,29,24,96,66,30,30.34,30.27,30.18,10,10,10,10,4,,0.00,0,,39
2011-10-31,62,44,28,32,28,26,92,62,27,30.30,30.19,30.07,10,10,10,13,2,22,0.00,0,,248